sensor_id;sensor_type;location;lat;lon;timestamp;temperature;humidity
59075;DHT22;44860;53.020;6.738;2022-12-08T00:01:45;2.80;99.90
59075;DHT22;44860;53.020;6.738;2022-12-08T00:04:10;2.80;99.90
59075;DHT22;44860;53.020;6.738;2022-12-08T00:06:41;2.80;99.90
59075;DHT22;44860;53.020;6.738;2022-12-08T00:09:38;2.80;99.90
59075;DHT22;44860;53.020;6.738;2022-12-08T00:12:12;2.80;99.90
59075;DHT22;44860;53.020;6.738;2022-12-08T00:14:39;2.80;99.90
59075;DHT22;44860;53.020;6.738;2022-12-08T00:17:06;2.80;99.90
59075;DHT22;44860;53.020;6.738;2022-12-08T00:19:32;2.80;99.90
59075;DHT22;44860;53.020;6.738;2022-12-08T00:21:58;2.80;99.90
59075;DHT22;44860;53.020;6.738;2022-12-08T00:24:29;2.80;99.90
59075;DHT22;44860;53.020;6.738;2022-12-08T00:26:54;2.80;99.90
59075;DHT22;44860;53.020;6.738;2022-12-08T00:29:20;2.80;99.90
59075;DHT22;44860;53.020;6.738;2022-12-08T00:31:46;2.80;99.90
59075;DHT22;44860;53.020;6.738;2022-12-08T00:34:13;2.80;99.90
59075;DHT22;44860;53.020;6.738;2022-12-08T00:36:39;2.80;99.90
59075;DHT22;44860;53.020;6.738;2022-12-08T00:39:05;2.80;99.90
59075;DHT22;44860;53.020;6.738;2022-12-08T00:41:31;2.80;99.90
59075;DHT22;44860;53.020;6.738;2022-12-08T00:44:16;2.80;99.90
59075;DHT22;44860;53.020;6.738;2022-12-08T00:46:44;2.80;99.90
59075;DHT22;44860;53.020;6.738;2022-12-08T00:49:10;2.80;99.90
59075;DHT22;44860;53.020;6.738;2022-12-08T00:51:36;2.80;99.90
59075;DHT22;44860;53.020;6.738;2022-12-08T00:54:03;2.80;99.90
59075;DHT22;44860;53.020;6.738;2022-12-08T00:56:29;2.80;99.90
59075;DHT22;44860;53.020;6.738;2022-12-08T00:58:55;2.80;99.90
59075;DHT22;44860;53.020;6.738;2022-12-08T01:01:20;2.80;99.90
59075;DHT22;44860;53.020;6.738;2022-12-08T01:03:46;2.80;99.90
59075;DHT22;44860;53.020;6.738;2022-12-08T01:06:12;2.80;99.90
59075;DHT22;44860;53.020;6.738;2022-12-08T01:08:38;2.90;99.90
59075;DHT22;44860;53.020;6.738;2022-12-08T01:11:10;2.90;99.90
59075;DHT22;44860;53.020;6.738;2022-12-08T01:13:36;2.90;99.90
59075;DHT22;44860;53.020;6.738;2022-12-08T01:16:02;2.90;99.90
59075;DHT22;44860;53.020;6.738;2022-12-08T01:18:28;2.90;99.90
59075;DHT22;44860;53.020;6.738;2022-12-08T01:20:54;2.90;99.90
59075;DHT22;44860;53.020;6.738;2022-12-08T01:23:20;2.90;99.90
59075;DHT22;44860;53.020;6.738;2022-12-08T01:25:49;2.90;99.90
59075;DHT22;44860;53.020;6.738;2022-12-08T01:28:14;3.00;99.90
59075;DHT22;44860;53.020;6.738;2022-12-08T01:30:40;3.00;99.90
59075;DHT22;44860;53.020;6.738;2022-12-08T01:33:06;3.00;99.90
59075;DHT22;44860;53.020;6.738;2022-12-08T01:35:33;3.00;99.90
59075;DHT22;44860;53.020;6.738;2022-12-08T01:37:58;2.90;99.90
59075;DHT22;44860;53.020;6.738;2022-12-08T01:40:24;2.90;99.90
59075;DHT22;44860;53.020;6.738;2022-12-08T01:42:50;3.00;99.90
59075;DHT22;44860;53.020;6.738;2022-12-08T01:45:23;2.90;99.90
59075;DHT22;44860;53.020;6.738;2022-12-08T01:47:53;2.90;99.90
59075;DHT22;44860;53.020;6.738;2022-12-08T01:50:21;2.90;99.90
59075;DHT22;44860;53.020;6.738;2022-12-08T01:52:51;2.90;99.90
59075;DHT22;44860;53.020;6.738;2022-12-08T01:55:42;2.90;99.90
59075;DHT22;44860;53.020;6.738;2022-12-08T01:58:37;2.90;99.90
59075;DHT22;44860;53.020;6.738;2022-12-08T02:01:04;2.90;99.90
59075;DHT22;44860;53.020;6.738;2022-12-08T02:04:00;2.90;99.90
59075;DHT22;44860;53.020;6.738;2022-12-08T02:06:31;2.90;99.90
59075;DHT22;44860;53.020;6.738;2022-12-08T02:08:59;2.90;99.90
59075;DHT22;44860;53.020;6.738;2022-12-08T02:11:26;2.90;99.90
59075;DHT22;44860;53.020;6.738;2022-12-08T02:13:53;2.90;99.90
59075;DHT22;44860;53.020;6.738;2022-12-08T02:21:53;3.00;99.90
59075;DHT22;44860;53.020;6.738;2022-12-08T02:31:07;2.90;99.90
59075;DHT22;44860;53.020;6.738;2022-12-08T02:33:48;2.90;99.90
59075;DHT22;44860;53.020;6.738;2022-12-08T02:36:58;3.00;99.90
59075;DHT22;44860;53.020;6.738;2022-12-08T02:39:30;3.00;99.90
59075;DHT22;44860;53.020;6.738;2022-12-08T02:42:19;3.00;99.90
59075;DHT22;44860;53.020;6.738;2022-12-08T02:45:00;3.00;99.90
59075;DHT22;44860;53.020;6.738;2022-12-08T02:47:29;3.00;99.90
59075;DHT22;44860;53.020;6.738;2022-12-08T02:49:57;3.00;99.90
59075;DHT22;44860;53.020;6.738;2022-12-08T02:55:00;3.00;99.90
59075;DHT22;44860;53.020;6.738;2022-12-08T02:57:43;3.00;99.90
59075;DHT22;44860;53.020;6.738;2022-12-08T03:00:20;3.00;99.90
59075;DHT22;44860;53.020;6.738;2022-12-08T03:10:41;3.00;99.90
59075;DHT22;44860;53.020;6.738;2022-12-08T03:13:11;2.90;99.90
59075;DHT22;44860;53.020;6.738;2022-12-08T03:15:39;3.00;99.90
59075;DHT22;44860;53.020;6.738;2022-12-08T03:18:08;3.00;99.90
59075;DHT22;44860;53.020;6.738;2022-12-08T03:20:37;3.00;99.90
59075;DHT22;44860;53.020;6.738;2022-12-08T03:23:06;3.00;99.90
59075;DHT22;44860;53.020;6.738;2022-12-08T03:26:09;3.00;99.90
59075;DHT22;44860;53.020;6.738;2022-12-08T03:28:36;3.00;99.90
59075;DHT22;44860;53.020;6.738;2022-12-08T03:31:06;3.00;99.90
59075;DHT22;44860;53.020;6.738;2022-12-08T03:33:36;3.00;99.90
59075;DHT22;44860;53.020;6.738;2022-12-08T03:36:06;3.00;99.90
59075;DHT22;44860;53.020;6.738;2022-12-08T03:38:37;3.00;99.90
59075;DHT22;44860;53.020;6.738;2022-12-08T03:41:04;3.00;99.90
59075;DHT22;44860;53.020;6.738;2022-12-08T03:43:50;3.00;99.90
59075;DHT22;44860;53.020;6.738;2022-12-08T03:46:17;3.00;99.90
59075;DHT22;44860;53.020;6.738;2022-12-08T03:48:43;3.00;99.90
59075;DHT22;44860;53.020;6.738;2022-12-08T03:51:09;3.00;99.90
59075;DHT22;44860;53.020;6.738;2022-12-08T03:53:35;3.00;99.90
59075;DHT22;44860;53.020;6.738;2022-12-08T03:56:04;3.00;99.90
59075;DHT22;44860;53.020;6.738;2022-12-08T03:58:30;3.00;99.90
59075;DHT22;44860;53.020;6.738;2022-12-08T04:00:56;3.00;99.90
59075;DHT22;44860;53.020;6.738;2022-12-08T04:03:22;3.00;99.90
59075;DHT22;44860;53.020;6.738;2022-12-08T04:05:47;3.00;99.90
59075;DHT22;44860;53.020;6.738;2022-12-08T04:08:13;2.90;99.90
59075;DHT22;44860;53.020;6.738;2022-12-08T04:10:38;3.00;99.90
59075;DHT22;44860;53.020;6.738;2022-12-08T04:13:04;2.90;99.90
59075;DHT22;44860;53.020;6.738;2022-12-08T04:15:30;3.00;99.90
59075;DHT22;44860;53.020;6.738;2022-12-08T04:17:55;2.90;99.90
59075;DHT22;44860;53.020;6.738;2022-12-08T04:20:21;2.90;99.90
59075;DHT22;44860;53.020;6.738;2022-12-08T04:22:46;2.90;99.90
59075;DHT22;44860;53.020;6.738;2022-12-08T04:25:12;2.90;99.90
59075;DHT22;44860;53.020;6.738;2022-12-08T04:27:38;2.90;99.90
59075;DHT22;44860;53.020;6.738;2022-12-08T04:30:04;2.90;99.90
59075;DHT22;44860;53.020;6.738;2022-12-08T04:32:30;2.90;99.90
59075;DHT22;44860;53.020;6.738;2022-12-08T04:34:55;2.90;99.90
59075;DHT22;44860;53.020;6.738;2022-12-08T04:37:21;2.80;99.90
59075;DHT22;44860;53.020;6.738;2022-12-08T04:39:47;2.80;99.90
59075;DHT22;44860;53.020;6.738;2022-12-08T04:42:12;2.80;99.90
59075;DHT22;44860;53.020;6.738;2022-12-08T04:44:38;2.80;99.90
59075;DHT22;44860;53.020;6.738;2022-12-08T04:47:03;2.80;99.90
59075;DHT22;44860;53.020;6.738;2022-12-08T04:49:29;2.80;99.90
59075;DHT22;44860;53.020;6.738;2022-12-08T04:51:55;2.80;99.90
59075;DHT22;44860;53.020;6.738;2022-12-08T04:54:20;2.80;99.90
59075;DHT22;44860;53.020;6.738;2022-12-08T04:56:46;2.80;99.90
59075;DHT22;44860;53.020;6.738;2022-12-08T04:59:12;2.80;99.90
59075;DHT22;44860;53.020;6.738;2022-12-08T05:01:37;2.80;99.90
59075;DHT22;44860;53.020;6.738;2022-12-08T05:04:03;2.80;99.90
59075;DHT22;44860;53.020;6.738;2022-12-08T05:06:28;2.80;99.90
59075;DHT22;44860;53.020;6.738;2022-12-08T05:08:54;2.80;99.90
59075;DHT22;44860;53.020;6.738;2022-12-08T05:11:20;2.80;99.90
59075;DHT22;44860;53.020;6.738;2022-12-08T05:13:46;2.80;99.90
59075;DHT22;44860;53.020;6.738;2022-12-08T05:16:13;2.80;99.90
59075;DHT22;44860;53.020;6.738;2022-12-08T05:18:40;2.80;99.90
59075;DHT22;44860;53.020;6.738;2022-12-08T05:21:07;2.80;99.90
59075;DHT22;44860;53.020;6.738;2022-12-08T05:23:33;2.80;99.90
59075;DHT22;44860;53.020;6.738;2022-12-08T05:25:59;2.80;99.90
59075;DHT22;44860;53.020;6.738;2022-12-08T05:28:25;2.80;99.90
59075;DHT22;44860;53.020;6.738;2022-12-08T05:30:51;2.80;99.90
59075;DHT22;44860;53.020;6.738;2022-12-08T05:33:17;2.80;99.90
59075;DHT22;44860;53.020;6.738;2022-12-08T05:35:42;2.80;99.90
59075;DHT22;44860;53.020;6.738;2022-12-08T05:38:08;2.80;99.90
59075;DHT22;44860;53.020;6.738;2022-12-08T05:40:39;2.80;99.90
59075;DHT22;44860;53.020;6.738;2022-12-08T05:43:05;2.80;99.90
59075;DHT22;44860;53.020;6.738;2022-12-08T05:45:33;2.80;99.90
59075;DHT22;44860;53.020;6.738;2022-12-08T05:47:59;2.80;99.90
59075;DHT22;44860;53.020;6.738;2022-12-08T05:50:24;2.80;99.90
59075;DHT22;44860;53.020;6.738;2022-12-08T05:52:50;2.80;99.90
59075;DHT22;44860;53.020;6.738;2022-12-08T05:55:16;2.80;99.90
59075;DHT22;44860;53.020;6.738;2022-12-08T05:57:41;2.80;99.90
59075;DHT22;44860;53.020;6.738;2022-12-08T06:00:08;2.80;99.90
59075;DHT22;44860;53.020;6.738;2022-12-08T06:02:33;2.80;99.90
59075;DHT22;44860;53.020;6.738;2022-12-08T06:05:00;2.80;99.90
59075;DHT22;44860;53.020;6.738;2022-12-08T06:07:25;2.80;99.90
59075;DHT22;44860;53.020;6.738;2022-12-08T06:09:51;2.80;99.90
59075;DHT22;44860;53.020;6.738;2022-12-08T06:12:16;2.80;99.90
59075;DHT22;44860;53.020;6.738;2022-12-08T06:14:42;2.80;99.90
59075;DHT22;44860;53.020;6.738;2022-12-08T06:17:08;2.80;99.90
59075;DHT22;44860;53.020;6.738;2022-12-08T06:19:33;2.80;99.90
59075;DHT22;44860;53.020;6.738;2022-12-08T06:21:59;2.80;99.90
59075;DHT22;44860;53.020;6.738;2022-12-08T06:24:25;2.80;99.90
59075;DHT22;44860;53.020;6.738;2022-12-08T06:26:50;2.80;99.90
59075;DHT22;44860;53.020;6.738;2022-12-08T06:29:16;2.80;99.90
59075;DHT22;44860;53.020;6.738;2022-12-08T06:31:42;2.80;99.90
59075;DHT22;44860;53.020;6.738;2022-12-08T06:34:07;2.70;99.90
59075;DHT22;44860;53.020;6.738;2022-12-08T06:36:33;2.70;99.90
59075;DHT22;44860;53.020;6.738;2022-12-08T06:38:59;2.70;99.90
59075;DHT22;44860;53.020;6.738;2022-12-08T06:41:25;2.70;99.90
59075;DHT22;44860;53.020;6.738;2022-12-08T06:43:50;2.70;99.90
59075;DHT22;44860;53.020;6.738;2022-12-08T06:46:18;2.70;99.90
59075;DHT22;44860;53.020;6.738;2022-12-08T06:48:44;2.70;99.90
59075;DHT22;44860;53.020;6.738;2022-12-08T06:51:15;2.70;99.90
59075;DHT22;44860;53.020;6.738;2022-12-08T06:53:42;2.70;99.90
59075;DHT22;44860;53.020;6.738;2022-12-08T06:56:09;2.70;99.90
59075;DHT22;44860;53.020;6.738;2022-12-08T06:58:35;2.60;99.90
59075;DHT22;44860;53.020;6.738;2022-12-08T07:01:09;2.70;99.90
59075;DHT22;44860;53.020;6.738;2022-12-08T07:03:37;2.70;99.90
59075;DHT22;44860;53.020;6.738;2022-12-08T07:06:04;2.70;99.90
59075;DHT22;44860;53.020;6.738;2022-12-08T07:08:30;2.70;99.90
59075;DHT22;44860;53.020;6.738;2022-12-08T07:10:56;2.70;99.90
59075;DHT22;44860;53.020;6.738;2022-12-08T07:13:21;2.70;99.90
59075;DHT22;44860;53.020;6.738;2022-12-08T07:15:47;2.60;99.90
59075;DHT22;44860;53.020;6.738;2022-12-08T07:18:13;2.70;99.90
59075;DHT22;44860;53.020;6.738;2022-12-08T07:20:38;2.60;99.90
59075;DHT22;44860;53.020;6.738;2022-12-08T07:23:04;2.60;99.90
59075;DHT22;44860;53.020;6.738;2022-12-08T07:25:30;2.60;99.90
59075;DHT22;44860;53.020;6.738;2022-12-08T07:27:56;2.60;99.90
59075;DHT22;44860;53.020;6.738;2022-12-08T07:30:21;2.60;99.90
59075;DHT22;44860;53.020;6.738;2022-12-08T07:32:47;2.60;99.90
59075;DHT22;44860;53.020;6.738;2022-12-08T07:35:13;2.60;99.90
59075;DHT22;44860;53.020;6.738;2022-12-08T07:37:38;2.60;99.90
59075;DHT22;44860;53.020;6.738;2022-12-08T07:40:06;2.60;99.90
59075;DHT22;44860;53.020;6.738;2022-12-08T07:42:32;2.60;99.90
59075;DHT22;44860;53.020;6.738;2022-12-08T07:44:59;2.60;99.90
59075;DHT22;44860;53.020;6.738;2022-12-08T07:47:25;2.60;99.90
59075;DHT22;44860;53.020;6.738;2022-12-08T07:49:51;2.60;99.90
59075;DHT22;44860;53.020;6.738;2022-12-08T07:52:16;2.60;99.90
59075;DHT22;44860;53.020;6.738;2022-12-08T07:54:42;2.60;99.90
59075;DHT22;44860;53.020;6.738;2022-12-08T07:57:07;2.60;99.90
59075;DHT22;44860;53.020;6.738;2022-12-08T07:59:34;2.60;99.90
59075;DHT22;44860;53.020;6.738;2022-12-08T08:02:00;2.60;99.90
59075;DHT22;44860;53.020;6.738;2022-12-08T08:04:25;2.60;99.90
59075;DHT22;44860;53.020;6.738;2022-12-08T08:06:51;2.60;99.90
59075;DHT22;44860;53.020;6.738;2022-12-08T08:09:17;2.50;99.90
59075;DHT22;44860;53.020;6.738;2022-12-08T08:11:42;2.50;99.90
59075;DHT22;44860;53.020;6.738;2022-12-08T08:14:08;2.60;99.90
59075;DHT22;44860;53.020;6.738;2022-12-08T08:16:34;2.60;99.90
59075;DHT22;44860;53.020;6.738;2022-12-08T08:18:59;2.50;99.90
59075;DHT22;44860;53.020;6.738;2022-12-08T08:21:25;2.50;99.90
59075;DHT22;44860;53.020;6.738;2022-12-08T08:23:51;2.50;99.90
59075;DHT22;44860;53.020;6.738;2022-12-08T08:26:16;2.50;99.90
59075;DHT22;44860;53.020;6.738;2022-12-08T08:28:42;2.50;99.90
59075;DHT22;44860;53.020;6.738;2022-12-08T08:31:10;2.40;99.90
59075;DHT22;44860;53.020;6.738;2022-12-08T08:33:36;2.40;99.90
59075;DHT22;44860;53.020;6.738;2022-12-08T08:36:06;2.40;99.90
59075;DHT22;44860;53.020;6.738;2022-12-08T08:38:32;2.40;99.90
59075;DHT22;44860;53.020;6.738;2022-12-08T08:40:58;2.40;99.90
59075;DHT22;44860;53.020;6.738;2022-12-08T08:43:23;2.40;99.90
59075;DHT22;44860;53.020;6.738;2022-12-08T08:45:59;2.40;99.90
59075;DHT22;44860;53.020;6.738;2022-12-08T08:48:29;2.40;99.90
59075;DHT22;44860;53.020;6.738;2022-12-08T08:51:08;2.30;99.90
59075;DHT22;44860;53.020;6.738;2022-12-08T08:53:35;2.30;99.90
59075;DHT22;44860;53.020;6.738;2022-12-08T08:56:00;2.30;99.90
59075;DHT22;44860;53.020;6.738;2022-12-08T08:58:26;2.30;99.90
59075;DHT22;44860;53.020;6.738;2022-12-08T09:00:52;2.30;99.90
59075;DHT22;44860;53.020;6.738;2022-12-08T09:03:17;2.30;99.90
59075;DHT22;44860;53.020;6.738;2022-12-08T09:05:43;2.30;99.90
59075;DHT22;44860;53.020;6.738;2022-12-08T09:08:09;2.30;99.90
59075;DHT22;44860;53.020;6.738;2022-12-08T09:10:35;2.20;99.90
59075;DHT22;44860;53.020;6.738;2022-12-08T09:13:02;2.30;99.90
59075;DHT22;44860;53.020;6.738;2022-12-08T09:15:27;2.20;99.90
59075;DHT22;44860;53.020;6.738;2022-12-08T09:17:53;2.20;99.90
59075;DHT22;44860;53.020;6.738;2022-12-08T09:20:18;2.30;99.90
59075;DHT22;44860;53.020;6.738;2022-12-08T09:22:44;2.30;99.90
59075;DHT22;44860;53.020;6.738;2022-12-08T09:25:10;2.30;99.90
59075;DHT22;44860;53.020;6.738;2022-12-08T09:27:38;2.30;99.90
59075;DHT22;44860;53.020;6.738;2022-12-08T09:30:05;2.30;99.90
59075;DHT22;44860;53.020;6.738;2022-12-08T09:32:31;2.30;99.90
59075;DHT22;44860;53.020;6.738;2022-12-08T09:35:04;2.30;99.90
59075;DHT22;44860;53.020;6.738;2022-12-08T09:37:30;2.40;99.90
59075;DHT22;44860;53.020;6.738;2022-12-08T09:39:56;2.40;99.90
59075;DHT22;44860;53.020;6.738;2022-12-08T09:42:36;2.40;99.90
59075;DHT22;44860;53.020;6.738;2022-12-08T09:45:15;2.40;99.90
59075;DHT22;44860;53.020;6.738;2022-12-08T09:50:33;2.40;99.90
59075;DHT22;44860;53.020;6.738;2022-12-08T09:53:10;2.40;99.90
59075;DHT22;44860;53.020;6.738;2022-12-08T10:00:54;2.50;99.90
59075;DHT22;44860;53.020;6.738;2022-12-08T10:03:22;2.60;99.90
59075;DHT22;44860;53.020;6.738;2022-12-08T10:16:51;2.70;99.90
59075;DHT22;44860;53.020;6.738;2022-12-08T10:19:22;2.80;99.90
59075;DHT22;44860;53.020;6.738;2022-12-08T10:21:49;2.80;99.90
59075;DHT22;44860;53.020;6.738;2022-12-08T10:24:32;2.80;99.90
59075;DHT22;44860;53.020;6.738;2022-12-08T10:27:03;2.80;99.90
59075;DHT22;44860;53.020;6.738;2022-12-08T10:29:29;2.90;99.90
59075;DHT22;44860;53.020;6.738;2022-12-08T10:31:57;2.90;99.90
59075;DHT22;44860;53.020;6.738;2022-12-08T10:34:25;3.00;99.90
59075;DHT22;44860;53.020;6.738;2022-12-08T10:36:53;3.00;99.90
59075;DHT22;44860;53.020;6.738;2022-12-08T10:39:35;3.10;99.90
59075;DHT22;44860;53.020;6.738;2022-12-08T10:47:38;3.30;99.90
59075;DHT22;44860;53.020;6.738;2022-12-08T10:50:40;3.30;99.90
59075;DHT22;44860;53.020;6.738;2022-12-08T10:55:49;3.40;99.90
59075;DHT22;44860;53.020;6.738;2022-12-08T10:58:35;3.40;99.90
59075;DHT22;44860;53.020;6.738;2022-12-08T11:01:24;3.40;99.90
59075;DHT22;44860;53.020;6.738;2022-12-08T11:03:53;3.50;99.90
59075;DHT22;44860;53.020;6.738;2022-12-08T11:06:38;3.50;99.90
59075;DHT22;44860;53.020;6.738;2022-12-08T11:11:53;3.50;99.90
59075;DHT22;44860;53.020;6.738;2022-12-08T11:14:24;3.60;99.90
59075;DHT22;44860;53.020;6.738;2022-12-08T11:16:51;3.60;99.90
59075;DHT22;44860;53.020;6.738;2022-12-08T11:19:19;3.60;99.90
59075;DHT22;44860;53.020;6.738;2022-12-08T11:21:46;3.70;99.90
59075;DHT22;44860;53.020;6.738;2022-12-08T11:24:20;3.70;99.90
59075;DHT22;44860;53.020;6.738;2022-12-08T11:27:00;3.70;99.90
59075;DHT22;44860;53.020;6.738;2022-12-08T11:29:28;3.70;99.90
59075;DHT22;44860;53.020;6.738;2022-12-08T11:31:59;3.70;99.90
59075;DHT22;44860;53.020;6.738;2022-12-08T11:34:37;3.70;99.90
59075;DHT22;44860;53.020;6.738;2022-12-08T11:37:09;3.80;99.90
59075;DHT22;44860;53.020;6.738;2022-12-08T11:39:45;3.90;99.90
59075;DHT22;44860;53.020;6.738;2022-12-08T11:42:15;3.90;99.90
59075;DHT22;44860;53.020;6.738;2022-12-08T11:44:57;3.90;99.90
59075;DHT22;44860;53.020;6.738;2022-12-08T11:47:52;4.00;99.90
59075;DHT22;44860;53.020;6.738;2022-12-08T11:50:39;4.00;99.90
59075;DHT22;44860;53.020;6.738;2022-12-08T11:53:14;4.00;99.90
59075;DHT22;44860;53.020;6.738;2022-12-08T11:55:46;4.00;99.90
59075;DHT22;44860;53.020;6.738;2022-12-08T11:58:28;4.10;99.90
59075;DHT22;44860;53.020;6.738;2022-12-08T12:00:56;4.00;99.90
59075;DHT22;44860;53.020;6.738;2022-12-08T12:03:43;4.10;99.90
59075;DHT22;44860;53.020;6.738;2022-12-08T12:09:33;4.10;99.90
59075;DHT22;44860;53.020;6.738;2022-12-08T12:12:38;4.20;99.90
59075;DHT22;44860;53.020;6.738;2022-12-08T12:15:45;4.20;99.90
59075;DHT22;44860;53.020;6.738;2022-12-08T12:18:49;4.20;99.90
59075;DHT22;44860;53.020;6.738;2022-12-08T12:21:24;4.20;99.90
59075;DHT22;44860;53.020;6.738;2022-12-08T12:23:55;4.20;99.90
59075;DHT22;44860;53.020;6.738;2022-12-08T12:26:30;4.30;99.90
59075;DHT22;44860;53.020;6.738;2022-12-08T12:31:33;4.30;99.90
59075;DHT22;44860;53.020;6.738;2022-12-08T12:34:30;4.30;99.90
59075;DHT22;44860;53.020;6.738;2022-12-08T12:39:34;4.30;99.90
59075;DHT22;44860;53.020;6.738;2022-12-08T12:42:34;4.30;99.90
59075;DHT22;44860;53.020;6.738;2022-12-08T12:48:13;4.30;99.90
59075;DHT22;44860;53.020;6.738;2022-12-08T13:03:43;4.30;99.90
59075;DHT22;44860;53.020;6.738;2022-12-08T13:06:12;4.20;99.90
59075;DHT22;44860;53.020;6.738;2022-12-08T13:08:41;4.20;99.90
59075;DHT22;44860;53.020;6.738;2022-12-08T13:11:14;4.20;99.90
59075;DHT22;44860;53.020;6.738;2022-12-08T13:14:02;4.20;99.90
59075;DHT22;44860;53.020;6.738;2022-12-08T13:16:36;4.20;99.90
59075;DHT22;44860;53.020;6.738;2022-12-08T13:19:12;4.20;99.90
59075;DHT22;44860;53.020;6.738;2022-12-08T13:21:38;4.20;99.90
59075;DHT22;44860;53.020;6.738;2022-12-08T13:29:32;4.10;99.90
59075;DHT22;44860;53.020;6.738;2022-12-08T13:34:50;4.00;99.90
59075;DHT22;44860;53.020;6.738;2022-12-08T13:37:27;4.00;99.90
59075;DHT22;44860;53.020;6.738;2022-12-08T13:40:29;4.00;99.90
59075;DHT22;44860;53.020;6.738;2022-12-08T13:42:59;3.90;99.90
59075;DHT22;44860;53.020;6.738;2022-12-08T13:45:30;3.90;99.90
59075;DHT22;44860;53.020;6.738;2022-12-08T13:50:34;3.90;99.90
59075;DHT22;44860;53.020;6.738;2022-12-08T13:53:34;3.90;99.90
59075;DHT22;44860;53.020;6.738;2022-12-08T13:56:04;3.90;99.90
59075;DHT22;44860;53.020;6.738;2022-12-08T13:58:33;3.90;99.90
59075;DHT22;44860;53.020;6.738;2022-12-08T14:01:19;3.90;99.90
59075;DHT22;44860;53.020;6.738;2022-12-08T14:03:52;3.90;99.90
59075;DHT22;44860;53.020;6.738;2022-12-08T14:06:35;3.90;99.90
59075;DHT22;44860;53.020;6.738;2022-12-08T14:09:05;3.90;99.90
59075;DHT22;44860;53.020;6.738;2022-12-08T14:12:08;3.90;99.90
59075;DHT22;44860;53.020;6.738;2022-12-08T14:14:44;3.90;99.90
59075;DHT22;44860;53.020;6.738;2022-12-08T14:17:12;3.90;99.90
59075;DHT22;44860;53.020;6.738;2022-12-08T14:22:37;3.80;99.90
59075;DHT22;44860;53.020;6.738;2022-12-08T14:25:05;3.70;99.90
59075;DHT22;44860;53.020;6.738;2022-12-08T14:27:34;3.70;99.90
59075;DHT22;44860;53.020;6.738;2022-12-08T14:30:29;3.60;99.90
59075;DHT22;44860;53.020;6.738;2022-12-08T14:32:54;3.60;99.90
59075;DHT22;44860;53.020;6.738;2022-12-08T14:35:29;3.50;99.90
59075;DHT22;44860;53.020;6.738;2022-12-08T14:37:57;3.40;99.90
59075;DHT22;44860;53.020;6.738;2022-12-08T14:45:30;3.30;99.90
59075;DHT22;44860;53.020;6.738;2022-12-08T14:50:54;3.10;99.90
59075;DHT22;44860;53.020;6.738;2022-12-08T14:53:21;3.10;99.90
59075;DHT22;44860;53.020;6.738;2022-12-08T14:55:48;3.00;99.90
59075;DHT22;44860;53.020;6.738;2022-12-08T14:58:29;3.00;99.90
59075;DHT22;44860;53.020;6.738;2022-12-08T15:00:59;2.90;99.90
59075;DHT22;44860;53.020;6.738;2022-12-08T15:03:27;2.90;99.90
59075;DHT22;44860;53.020;6.738;2022-12-08T15:06:02;2.80;99.90
59075;DHT22;44860;53.020;6.738;2022-12-08T15:08:28;2.80;99.90
59075;DHT22;44860;53.020;6.738;2022-12-08T15:13:47;2.70;99.90
59075;DHT22;44860;53.020;6.738;2022-12-08T15:16:55;2.70;99.90
59075;DHT22;44860;53.020;6.738;2022-12-08T15:19:25;2.60;99.90
59075;DHT22;44860;53.020;6.738;2022-12-08T15:21:54;2.50;99.90
59075;DHT22;44860;53.020;6.738;2022-12-08T15:24:28;2.50;99.90
59075;DHT22;44860;53.020;6.738;2022-12-08T15:26:55;2.40;99.90
59075;DHT22;44860;53.020;6.738;2022-12-08T15:29:26;2.40;99.90
59075;DHT22;44860;53.020;6.738;2022-12-08T15:31:55;2.30;99.90
59075;DHT22;44860;53.020;6.738;2022-12-08T15:34:21;2.30;99.90
59075;DHT22;44860;53.020;6.738;2022-12-08T15:36:49;2.20;99.90
59075;DHT22;44860;53.020;6.738;2022-12-08T15:39:30;2.20;99.90
59075;DHT22;44860;53.020;6.738;2022-12-08T15:41:58;2.10;99.90
59075;DHT22;44860;53.020;6.738;2022-12-08T15:44:26;2.10;99.90
59075;DHT22;44860;53.020;6.738;2022-12-08T15:46:52;2.00;99.90
59075;DHT22;44860;53.020;6.738;2022-12-08T15:49:20;2.00;99.90
59075;DHT22;44860;53.020;6.738;2022-12-08T15:51:46;2.00;99.90
59075;DHT22;44860;53.020;6.738;2022-12-08T15:54:13;1.90;99.90
59075;DHT22;44860;53.020;6.738;2022-12-08T15:56:53;1.90;99.90
59075;DHT22;44860;53.020;6.738;2022-12-08T15:59:24;1.80;99.90
59075;DHT22;44860;53.020;6.738;2022-12-08T16:01:52;1.80;99.90
59075;DHT22;44860;53.020;6.738;2022-12-08T16:04:20;1.80;99.90
59075;DHT22;44860;53.020;6.738;2022-12-08T16:06:51;1.70;99.90
59075;DHT22;44860;53.020;6.738;2022-12-08T16:11:54;1.70;99.90
59075;DHT22;44860;53.020;6.738;2022-12-08T16:14:38;1.60;99.90
59075;DHT22;44860;53.020;6.738;2022-12-08T16:17:16;1.60;99.90
59075;DHT22;44860;53.020;6.738;2022-12-08T16:19:42;1.50;99.90
59075;DHT22;44860;53.020;6.738;2022-12-08T16:22:17;1.50;99.90
59075;DHT22;44860;53.020;6.738;2022-12-08T16:24:43;1.50;99.90
59075;DHT22;44860;53.020;6.738;2022-12-08T16:27:27;1.50;99.90
59075;DHT22;44860;53.020;6.738;2022-12-08T16:29:54;1.50;99.90
59075;DHT22;44860;53.020;6.738;2022-12-08T16:32:20;1.50;99.90
59075;DHT22;44860;53.020;6.738;2022-12-08T16:34:46;1.50;99.90
59075;DHT22;44860;53.020;6.738;2022-12-08T16:37:14;1.40;99.90
59075;DHT22;44860;53.020;6.738;2022-12-08T16:39:45;1.40;99.90
59075;DHT22;44860;53.020;6.738;2022-12-08T16:42:31;1.40;99.90
59075;DHT22;44860;53.020;6.738;2022-12-08T16:45:17;1.30;99.90
59075;DHT22;44860;53.020;6.738;2022-12-08T16:47:55;1.30;99.90
59075;DHT22;44860;53.020;6.738;2022-12-08T16:50:26;1.30;99.90
59075;DHT22;44860;53.020;6.738;2022-12-08T16:53:06;1.30;99.90
59075;DHT22;44860;53.020;6.738;2022-12-08T16:55:35;1.30;99.90
59075;DHT22;44860;53.020;6.738;2022-12-08T16:58:00;1.20;99.90
59075;DHT22;44860;53.020;6.738;2022-12-08T17:00:28;1.20;99.90
59075;DHT22;44860;53.020;6.738;2022-12-08T17:02:54;1.20;99.90
59075;DHT22;44860;53.020;6.738;2022-12-08T17:05:24;1.20;99.90
59075;DHT22;44860;53.020;6.738;2022-12-08T17:07:51;1.20;99.90
59075;DHT22;44860;53.020;6.738;2022-12-08T17:10:23;1.10;99.90
59075;DHT22;44860;53.020;6.738;2022-12-08T17:12:49;1.10;99.90
59075;DHT22;44860;53.020;6.738;2022-12-08T17:15:17;1.10;99.90
59075;DHT22;44860;53.020;6.738;2022-12-08T17:17:47;1.10;99.90
59075;DHT22;44860;53.020;6.738;2022-12-08T17:20:15;1.00;99.90
59075;DHT22;44860;53.020;6.738;2022-12-08T17:22:41;1.00;99.90
59075;DHT22;44860;53.020;6.738;2022-12-08T17:25:07;0.90;99.90
59075;DHT22;44860;53.020;6.738;2022-12-08T17:27:35;0.90;99.90
59075;DHT22;44860;53.020;6.738;2022-12-08T17:30:00;0.90;99.90
59075;DHT22;44860;53.020;6.738;2022-12-08T17:32:26;0.90;99.90
59075;DHT22;44860;53.020;6.738;2022-12-08T17:34:52;0.80;99.90
59075;DHT22;44860;53.020;6.738;2022-12-08T17:37:19;0.90;99.90
59075;DHT22;44860;53.020;6.738;2022-12-08T17:39:45;0.80;99.90
59075;DHT22;44860;53.020;6.738;2022-12-08T17:42:10;0.80;99.90
59075;DHT22;44860;53.020;6.738;2022-12-08T17:44:36;0.80;99.90
59075;DHT22;44860;53.020;6.738;2022-12-08T17:47:03;0.80;99.90
59075;DHT22;44860;53.020;6.738;2022-12-08T17:49:32;0.80;99.90